Terminal Aerodrome Forecast
Issued by NWS

Home | Current Version | Previous Version | Text Only | Print | Product List | Glossary On
Versions: 1 2 3 4 5 6 7 8 9 10 11 12 13 14
064
FTUS42 TJSJ 251740
TAFIST
TAF
TIST 251740Z 2518/2618 13014KT P6SM SCT025
     FM252200 09008KT P6SM VCSH FEW025 SCT035
     FM261300 13012KT P6SM VCSH SCT025 SCT050=

USA.gov is the U.S. government's official web portal to all federal, state and local government web resources and services.